Time;durP1;ratioP1;P1;durP2;ratioP2;P2;SDS_P1;SDS_P2;PMS_P1;PMS_P2;Temp;Humidity;BMP_temperature;BMP_pressure;BME280_temperature;BME280_humidity;BME280_pressure;Samples;Min_cycle;Max_cycle;Signal;HPM_P1;HPM_P2
2021/12/06 00:00:31;;;;;;;46.85;27.90;;;1.60;99.90;;;;;;5060305;28;20052;-81
2021/12/06 00:02:57;;;;;;;44.83;27.83;;;1.60;99.90;;;;;;5065533;28;20048;-80
2021/12/06 00:05:24;;;;;;;42.08;26.77;;;1.60;99.90;;;;;;5068885;28;20048;-81
2021/12/06 00:07:50;;;;;;;46.63;26.27;;;1.60;99.90;;;;;;5069078;28;20052;-81
2021/12/06 00:10:17;;;;;;;38.05;24.38;;;1.60;99.90;;;;;;5064689;28;20044;-82
2021/12/06 00:12:43;;;;;;;47.38;28.70;;;1.60;99.90;;;;;;5064973;28;20044;-81
2021/12/06 00:15:10;;;;;;;37.03;23.30;;;1.60;99.90;;;;;;5067100;28;20079;-81
2021/12/06 00:17:37;;;;;;;41.42;26.92;;;1.60;99.90;;;;;;5054981;28;20051;-81
2021/12/06 00:20:03;;;;;;;36.45;24.77;;;1.60;99.90;;;;;;5062967;28;20055;-81
2021/12/06 00:22:30;;;;;;;39.10;24.88;;;1.60;99.90;;;;;;5057486;28;20077;-80
2021/12/06 00:24:56;;;;;;;40.30;25.05;;;1.60;99.90;;;;;;5064643;28;20047;-81
2021/12/06 00:27:23;;;;;;;45.00;25.27;;;1.70;99.90;;;;;;5057178;28;20049;-80
2021/12/06 00:29:49;;;;;;;40.55;25.38;;;1.70;99.90;;;;;;5058400;28;20049;-81
2021/12/06 00:32:16;;;;;;;49.28;27.55;;;1.70;99.90;;;;;;5066428;28;20044;-82
2021/12/06 00:34:42;;;;;;;48.15;27.02;;;1.70;99.90;;;;;;5058802;28;20045;-81
2021/12/06 00:37:18;;;;;;;40.10;26.35;;;1.70;99.90;;;;;;5059818;28;20056;-81
2021/12/06 00:39:45;;;;;;;48.95;27.45;;;1.70;99.90;;;;;;5058999;28;20451;-81
2021/12/06 00:42:11;;;;;;;44.67;27.83;;;1.70;99.90;;;;;;5061619;28;20377;-81
2021/12/06 00:44:38;;;;;;;47.35;27.13;;;1.70;99.90;;;;;;5055313;28;20056;-82
2021/12/06 00:47:05;;;;;;;42.63;27.98;;;1.70;99.90;;;;;;5065079;28;20053;-82
2021/12/06 00:49:32;;;;;;;46.97;27.83;;;1.70;99.90;;;;;;5056511;28;20083;-81
2021/12/06 00:51:59;;;;;;;43.22;26.17;;;1.70;99.90;;;;;;5066872;28;20059;-80
2021/12/06 00:54:25;;;;;;;46.20;24.60;;;1.80;99.90;;;;;;5061082;28;20056;-81
2021/12/06 00:56:52;;;;;;;43.15;26.38;;;1.70;99.90;;;;;;5060834;28;20045;-81
2021/12/06 00:59:18;;;;;;;49.45;27.73;;;1.80;99.90;;;;;;5060364;28;20056;-81
2021/12/06 01:01:45;;;;;;;46.45;28.42;;;1.80;99.90;;;;;;5062920;28;20052;-81
2021/12/06 01:04:12;;;;;;;49.85;28.75;;;1.80;99.90;;;;;;5069615;28;20041;-81
2021/12/06 01:06:39;;;;;;;47.10;27.15;;;1.80;99.90;;;;;;5064113;28;20052;-82
2021/12/06 01:09:05;;;;;;;51.63;28.88;;;1.70;99.90;;;;;;5053626;28;20064;-81
2021/12/06 01:11:32;;;;;;;55.05;29.25;;;1.70;99.90;;;;;;5062160;28;20055;-79
2021/12/06 01:13:58;;;;;;;49.53;28.83;;;1.80;99.90;;;;;;5084618;28;20044;-81
2021/12/06 01:16:25;;;;;;;50.17;28.77;;;1.70;99.90;;;;;;5061583;28;20064;-81
2021/12/06 01:18:52;;;;;;;51.55;28.73;;;1.80;99.90;;;;;;5066022;28;20049;-81
2021/12/06 01:21:38;;;;;;;53.47;29.13;;;1.70;99.90;;;;;;5069603;28;20056;-81
2021/12/06 01:24:04;;;;;;;46.55;28.40;;;1.80;99.90;;;;;;5062964;28;20070;-81
2021/12/06 01:26:43;;;;;;;53.35;30.85;;;1.70;99.90;;;;;;5057401;28;20057;-81
2021/12/06 01:29:41;;;;;;;44.75;26.52;;;1.70;99.90;;;;;;5058331;28;20045;-81
2021/12/06 01:32:17;;;;;;;52.75;31.90;;;1.70;99.90;;;;;;5068370;28;20126;-81
2021/12/06 01:40:12;;;;;;;50.00;28.88;;;1.70;99.90;;;;;;5064886;28;20411;-81
2021/12/06 01:42:39;;;;;;;54.45;30.80;;;1.70;99.90;;;;;;5065427;28;20131;-81
2021/12/06 01:45:05;;;;;;;46.42;29.92;;;1.70;99.90;;;;;;5066017;28;20048;-81
2021/12/06 01:47:32;;;;;;;45.88;29.48;;;1.70;99.90;;;;;;5062847;28;20495;-81
2021/12/06 01:49:58;;;;;;;52.97;29.80;;;1.70;99.90;;;;;;5065268;28;20041;-81
2021/12/06 01:52:25;;;;;;;49.92;29.98;;;1.70;99.90;;;;;;5065513;28;20164;-81
2021/12/06 01:54:51;;;;;;;52.58;30.10;;;1.80;99.90;;;;;;5070233;28;20049;-81
2021/12/06 01:57:18;;;;;;;56.55;29.40;;;1.70;99.90;;;;;;5064155;28;20068;-81
2021/12/06 01:59:44;;;;;;;51.72;30.20;;;1.80;99.90;;;;;;5060982;28;20056;-81
2021/12/06 02:02:11;;;;;;;55.70;31.60;;;1.70;99.90;;;;;;5073832;28;20055;-81
2021/12/06 02:04:37;;;;;;;51.33;31.65;;;1.80;99.90;;;;;;5056888;28;20495;-80
2021/12/06 02:07:06;;;;;;;55.50;31.25;;;1.80;99.90;;;;;;5059508;28;20055;-81
2021/12/06 02:09:32;;;;;;;49.72;29.40;;;1.80;99.90;;;;;;5061062;28;20068;-81
2021/12/06 02:12:00;;;;;;;63.67;31.58;;;1.80;99.90;;;;;;5068545;28;20059;-81
2021/12/06 02:14:34;;;;;;;54.15;29.45;;;1.80;99.90;;;;;;5068629;28;20053;-82
2021/12/06 02:17:07;;;;;;;54.47;31.40;;;1.70;99.90;;;;;;5064427;28;20044;-81
2021/12/06 02:19:36;;;;;;;60.55;30.20;;;1.70;99.90;;;;;;5057630;28;20909;-81
2021/12/06 02:22:03;;;;;;;53.95;30.70;;;1.70;99.90;;;;;;5060795;28;20049;-81
2021/12/06 02:24:31;;;;;;;53.95;28.33;;;1.60;99.90;;;;;;5060097;28;20083;-81
2021/12/06 02:26:57;;;;;;;53.72;31.15;;;1.70;99.90;;;;;;5059888;28;20072;-81
2021/12/06 02:29:24;;;;;;;63.25;31.60;;;1.70;99.90;;;;;;5066523;28;20053;-81
2021/12/06 02:31:50;;;;;;;56.95;29.83;;;1.70;99.90;;;;;;5062275;28;20392;-82
2021/12/06 02:34:17;;;;;;;62.97;33.03;;;1.70;99.90;;;;;;5060603;28;20071;-82
2021/12/06 02:36:45;;;;;;;51.97;30.50;;;1.70;99.90;;;;;;5060738;28;20412;-82
2021/12/06 02:39:19;;;;;;;60.47;32.00;;;1.70;99.90;;;;;;5057000;28;20049;-81
2021/12/06 02:41:46;;;;;;;59.72;30.25;;;1.70;99.90;;;;;;5065839;28;20132;-82
2021/12/06 02:44:13;;;;;;;63.75;33.05;;;1.70;99.90;;;;;;5062389;28;20048;-81
2021/12/06 02:46:39;;;;;;;57.63;31.42;;;1.80;99.90;;;;;;5063903;28;20048;-80
2021/12/06 02:49:06;;;;;;;62.30;29.30;;;1.80;99.90;;;;;;5060835;28;20045;-81
2021/12/06 02:51:32;;;;;;;59.22;32.55;;;1.80;99.90;;;;;;5067348;28;20084;-81
2021/12/06 02:53:59;;;;;;;52.65;30.83;;;1.70;99.90;;;;;;5067597;28;20052;-81
2021/12/06 02:56:34;;;;;;;65.00;33.50;;;1.70;99.90;;;;;;5066417;28;20052;-81
2021/12/06 02:59:00;;;;;;;55.30;31.00;;;1.70;99.90;;;;;;5070365;28;20178;-81
2021/12/06 03:01:27;;;;;;;59.35;32.10;;;1.70;99.90;;;;;;5071523;28;20051;-82
2021/12/06 03:03:53;;;;;;;58.33;30.25;;;1.80;99.90;;;;;;5065118;28;20056;-81
2021/12/06 03:06:20;;;;;;;59.90;29.25;;;1.70;99.90;;;;;;5066758;28;20045;-81
2021/12/06 03:08:47;;;;;;;61.13;32.50;;;1.70;99.90;;;;;;5061270;28;20053;-81
2021/12/06 03:11:13;;;;;;;65.65;32.22;;;1.70;99.90;;;;;;5067161;28;20044;-82
2021/12/06 03:13:40;;;;;;;55.85;31.30;;;1.70;99.90;;;;;;5055613;28;20051;-82
2021/12/06 03:16:06;;;;;;;61.05;31.35;;;1.70;99.90;;;;;;5067700;28;20048;-82
2021/12/06 03:18:33;;;;;;;56.15;31.95;;;1.70;99.90;;;;;;5064818;28;20515;-81
2021/12/06 03:20:59;;;;;;;60.28;33.08;;;1.80;99.90;;;;;;5064568;28;20488;-82
2021/12/06 03:23:26;;;;;;;61.15;32.42;;;1.70;99.90;;;;;;5063403;28;20056;-82
2021/12/06 03:25:52;;;;;;;57.38;32.17;;;1.80;99.90;;;;;;5063228;28;20059;-81
2021/12/06 03:28:19;;;;;;;64.80;32.60;;;1.80;99.90;;;;;;5070445;28;20048;-81
2021/12/06 03:30:45;;;;;;;60.67;32.08;;;1.70;99.90;;;;;;5058801;28;20049;-80
2021/12/06 03:33:12;;;;;;;59.92;32.67;;;1.80;99.90;;;;;;5067919;28;20389;-81
2021/12/06 03:35:39;;;;;;;64.65;33.85;;;1.80;99.90;;;;;;5066750;28;20444;-81
2021/12/06 03:38:05;;;;;;;57.75;31.75;;;1.80;99.90;;;;;;5066714;28;20852;-81
2021/12/06 03:40:32;;;;;;;63.33;32.20;;;1.80;99.90;;;;;;5065473;28;20057;-80
2021/12/06 03:42:58;;;;;;;67.47;34.72;;;1.80;99.90;;;;;;5067057;28;20048;-81
2021/12/06 03:45:25;;;;;;;60.63;30.85;;;1.80;99.90;;;;;;5062192;28;20041;-80
2021/12/06 03:47:51;;;;;;;55.90;30.48;;;1.80;99.90;;;;;;5064496;28;20040;-80
2021/12/06 03:50:18;;;;;;;59.53;33.70;;;1.80;99.90;;;;;;5053024;28;20056;-80
2021/12/06 03:52:44;;;;;;;56.65;31.70;;;1.80;99.90;;;;;;5057044;28;20057;-79
2021/12/06 03:55:12;;;;;;;57.28;31.50;;;1.70;99.90;;;;;;5065222;28;20115;-80
2021/12/06 03:57:39;;;;;;;60.65;30.85;;;1.80;99.90;;;;;;5070256;28;20125;-80
2021/12/06 04:00:05;;;;;;;58.58;30.60;;;1.80;99.90;;;;;;5064069;28;20048;-80
2021/12/06 04:02:32;;;;;;;64.72;31.30;;;1.80;99.90;;;;;;5057139;28;20462;-80
2021/12/06 04:04:58;;;;;;;67.55;33.25;;;1.80;99.90;;;;;;5062444;28;20493;-80
2021/12/06 04:07:25;;;;;;;56.33;27.70;;;1.80;99.90;;;;;;5058472;28;20052;-80
2021/12/06 04:09:52;;;;;;;54.92;30.75;;;1.80;99.90;;;;;;5068171;28;20469;-80
2021/12/06 04:12:18;;;;;;;52.72;30.42;;;1.80;99.90;;;;;;5064731;28;20499;-80
2021/12/06 04:14:46;;;;;;;52.55;30.92;;;1.80;99.90;;;;;;5061484;28;20048;-80
2021/12/06 04:17:13;;;;;;;56.78;30.10;;;1.80;99.90;;;;;;5062442;28;20087;-80
2021/12/06 04:19:39;;;;;;;60.50;31.02;;;1.80;99.90;;;;;;5059785;28;20048;-80
2021/12/06 04:22:06;;;;;;;55.30;30.42;;;1.80;99.90;;;;;;5059727;28;20045;-81
2021/12/06 04:24:32;;;;;;;51.17;29.30;;;1.80;99.90;;;;;;5059428;28;20049;-81
2021/12/06 04:27:02;;;;;;;49.28;28.02;;;1.80;99.90;;;;;;5058860;28;20076;-80
2021/12/06 04:29:28;;;;;;;56.85;31.10;;;1.80;99.90;;;;;;5062280;28;20044;-80
2021/12/06 04:31:55;;;;;;;52.33;28.50;;;1.80;99.90;;;;;;5060081;28;20060;-80
2021/12/06 04:34:22;;;;;;;48.78;25.15;;;1.80;99.90;;;;;;5057968;28;20477;-80
2021/12/06 04:36:48;;;;;;;59.10;30.98;;;1.80;99.90;;;;;;5062011;28;20825;-80
2021/12/06 04:39:15;;;;;;;57.55;29.48;;;1.80;99.90;;;;;;5058798;28;20132;-80
2021/12/06 04:41:41;;;;;;;52.45;29.13;;;1.80;99.90;;;;;;5067611;28;20060;-80
2021/12/06 04:44:08;;;;;;;54.05;29.15;;;1.90;99.90;;;;;;5062653;28;20052;-80
2021/12/06 04:46:35;;;;;;;60.17;28.40;;;1.90;99.90;;;;;;5058377;28;20052;-81
2021/12/06 04:49:02;;;;;;;53.03;26.63;;;1.80;99.90;;;;;;5064164;28;20045;-81
2021/12/06 04:51:28;;;;;;;58.15;26.83;;;1.80;99.90;;;;;;5058623;28;20049;-80
2021/12/06 04:53:55;;;;;;;49.92;29.90;;;1.80;99.90;;;;;;5059685;28;20051;-80
2021/12/06 04:56:21;;;;;;;50.83;27.65;;;1.90;99.90;;;;;;5066437;28;20040;-80
2021/12/06 04:58:48;;;;;;;56.85;28.65;;;1.80;99.90;;;;;;5062069;28;20048;-80
2021/12/06 05:01:15;;;;;;;48.67;27.38;;;1.80;99.90;;;;;;5069288;28;20060;-80
2021/12/06 05:03:41;;;;;;;55.45;31.15;;;1.80;99.90;;;;;;5056752;28;20045;-80
2021/12/06 05:06:08;;;;;;;55.33;31.92;;;1.80;99.90;;;;;;5058447;28;20071;-81
2021/12/06 05:08:34;;;;;;;58.97;29.92;;;1.90;99.90;;;;;;5067532;28;20506;-80
2021/12/06 05:11:01;;;;;;;65.15;30.45;;;1.80;99.90;;;;;;5060475;28;20084;-80
2021/12/06 05:13:27;;;;;;;57.28;30.27;;;1.90;99.90;;;;;;5059463;28;20053;-80
2021/12/06 05:15:54;;;;;;;67.85;31.00;;;1.90;99.90;;;;;;5069133;28;20468;-80
2021/12/06 05:18:20;;;;;;;51.35;27.27;;;1.80;99.90;;;;;;5066583;28;20051;-80
2021/12/06 05:20:47;;;;;;;56.78;29.00;;;1.90;99.90;;;;;;5060943;28;20052;-80
2021/12/06 05:23:13;;;;;;;51.67;28.52;;;1.90;99.90;;;;;;5067023;28;20045;-81
2021/12/06 05:25:40;;;;;;;58.38;31.63;;;1.90;99.90;;;;;;5061437;28;20112;-80
2021/12/06 05:28:07;;;;;;;46.55;27.75;;;1.90;99.90;;;;;;5059750;28;20068;-80
2021/12/06 05:30:34;;;;;;;59.63;30.23;;;1.90;99.90;;;;;;5063337;28;20053;-80
2021/12/06 05:33:02;;;;;;;47.58;28.13;;;1.90;99.90;;;;;;5060509;28;20083;-80
2021/12/06 05:35:28;;;;;;;56.50;29.33;;;1.90;99.90;;;;;;5069995;28;20048;-80
2021/12/06 05:37:55;;;;;;;58.47;30.35;;;1.90;99.90;;;;;;5061917;28;20415;-80
2021/12/06 05:40:21;;;;;;;57.13;30.50;;;1.90;99.90;;;;;;5065409;28;20048;-80
2021/12/06 05:42:48;;;;;;;56.78;30.33;;;1.90;99.90;;;;;;5056072;28;20057;-80
2021/12/06 05:45:14;;;;;;;56.50;29.17;;;2.00;99.90;;;;;;5061952;28;20056;-80
2021/12/06 05:47:41;;;;;;;58.90;29.92;;;2.00;99.90;;;;;;5066469;28;20049;-80
2021/12/06 05:50:07;;;;;;;60.88;30.63;;;1.90;99.90;;;;;;5070515;28;20049;-80
2021/12/06 05:52:34;;;;;;;62.17;30.63;;;1.90;99.90;;;;;;5058389;28;20067;-80
2021/12/06 05:55:00;;;;;;;57.60;30.38;;;1.90;99.90;;;;;;5060839;28;20041;-80
2021/12/06 05:57:27;;;;;;;54.50;30.90;;;1.90;99.90;;;;;;5062860;28;20207;-79
2021/12/06 05:59:54;;;;;;;57.47;31.95;;;1.90;99.90;;;;;;5066068;28;20052;-80
2021/12/06 06:02:21;;;;;;;52.75;30.00;;;1.90;99.90;;;;;;5063743;28;20056;-80
2021/12/06 06:04:48;;;;;;;53.83;30.23;;;2.00;99.90;;;;;;5067106;28;20052;-80
2021/12/06 06:07:14;;;;;;;59.05;32.22;;;1.90;99.90;;;;;;5064965;28;20403;-80
2021/12/06 06:09:41;;;;;;;57.15;30.48;;;1.90;99.90;;;;;;5061987;28;20495;-79
2021/12/06 06:12:07;;;;;;;60.58;30.63;;;2.00;99.90;;;;;;5061440;28;20056;-79
2021/12/06 06:14:34;;;;;;;51.40;32.30;;;1.90;99.90;;;;;;5062689;28;20056;-79
2021/12/06 06:17:08;;;;;;;59.53;31.35;;;1.90;99.90;;;;;;5065661;28;20044;-80
2021/12/06 06:19:34;;;;;;;56.08;30.33;;;2.00;99.90;;;;;;5059538;28;20052;-80
2021/12/06 06:22:01;;;;;;;52.55;31.00;;;1.90;99.90;;;;;;5062003;28;20052;-79
2021/12/06 06:24:27;;;;;;;61.53;31.70;;;2.00;99.90;;;;;;5071579;28;20049;-80
2021/12/06 06:26:54;;;;;;;49.42;29.88;;;1.90;99.90;;;;;;5063816;28;20079;-80
2021/12/06 06:29:21;;;;;;;54.00;29.90;;;1.90;99.90;;;;;;5068170;28;20060;-80
2021/12/06 06:31:47;;;;;;;51.75;31.15;;;1.90;99.90;;;;;;5059339;28;20102;-80
2021/12/06 06:34:14;;;;;;;53.92;29.42;;;2.00;99.90;;;;;;5070652;28;20060;-80
2021/12/06 06:36:40;;;;;;;55.92;29.83;;;2.00;99.90;;;;;;5061518;28;20048;-80
2021/12/06 06:39:07;;;;;;;54.60;30.88;;;2.00;99.90;;;;;;5068658;28;20052;-80
2021/12/06 06:41:35;;;;;;;52.13;29.92;;;1.90;99.90;;;;;;5065569;28;20057;-80
2021/12/06 06:44:01;;;;;;;60.47;32.50;;;1.90;99.90;;;;;;5064958;28;20053;-80
2021/12/06 06:46:28;;;;;;;57.22;30.25;;;2.00;99.90;;;;;;5067939;28;20048;-81
2021/12/06 06:48:56;;;;;;;57.45;29.95;;;1.90;99.90;;;;;;5059902;28;20385;-81
2021/12/06 06:51:22;;;;;;;59.83;30.77;;;1.90;99.90;;;;;;5058450;28;20094;-80
2021/12/06 06:53:49;;;;;;;51.15;30.60;;;1.90;99.90;;;;;;5054010;28;20048;-81
2021/12/06 06:56:16;;;;;;;59.58;30.70;;;2.00;99.90;;;;;;5054078;28;20051;-81
2021/12/06 06:58:42;;;;;;;50.72;30.52;;;1.90;99.90;;;;;;5064245;28;20044;-81
2021/12/06 07:01:09;;;;;;;53.28;31.40;;;2.00;99.90;;;;;;5054916;28;20049;-80
2021/12/06 07:03:35;;;;;;;51.17;31.23;;;2.00;99.90;;;;;;5060779;28;20114;-80
2021/12/06 07:06:02;;;;;;;54.53;30.45;;;2.00;99.90;;;;;;5063955;28;20064;-79
2021/12/06 07:08:28;;;;;;;55.50;31.10;;;2.00;99.90;;;;;;5061040;28;20045;-80
2021/12/06 07:10:55;;;;;;;55.63;29.70;;;2.00;99.90;;;;;;5060712;28;20476;-80
2021/12/06 07:13:22;;;;;;;55.20;31.45;;;1.90;99.90;;;;;;5062901;28;20829;-80
2021/12/06 07:15:48;;;;;;;52.38;30.20;;;1.90;99.90;;;;;;5060461;28;20071;-80
2021/12/06 07:18:15;;;;;;;54.72;33.05;;;1.90;99.90;;;;;;5057450;28;20051;-80
2021/12/06 07:20:41;;;;;;;57.58;30.10;;;1.90;99.90;;;;;;5062505;28;20071;-80
2021/12/06 07:23:08;;;;;;;53.47;28.80;;;1.90;99.90;;;;;;5055067;28;20132;-80
2021/12/06 07:25:35;;;;;;;53.83;30.52;;;1.90;99.90;;;;;;5064076;28;20056;-81
2021/12/06 07:28:01;;;;;;;58.72;32.88;;;1.90;99.90;;;;;;5061356;28;20407;-80
2021/12/06 07:30:28;;;;;;;58.47;32.53;;;1.90;99.90;;;;;;5058309;28;20075;-81
2021/12/06 07:32:54;;;;;;;60.75;32.10;;;1.90;99.90;;;;;;5055934;28;20052;-80
2021/12/06 07:35:21;;;;;;;54.20;30.60;;;1.90;99.90;;;;;;5053654;28;20047;-81
2021/12/06 07:37:47;;;;;;;61.63;30.92;;;1.90;99.90;;;;;;5059530;28;20048;-81
2021/12/06 07:40:14;;;;;;;67.82;32.08;;;1.90;99.90;;;;;;5061159;28;20044;-81
2021/12/06 07:42:40;;;;;;;61.22;30.80;;;2.00;99.90;;;;;;5061074;28;20060;-81
2021/12/06 07:45:07;;;;;;;54.90;29.55;;;2.00;99.90;;;;;;5055714;28;20049;-78
2021/12/06 07:47:36;;;;;;;61.58;32.28;;;2.00;99.90;;;;;;5066173;28;20048;-81
2021/12/06 07:50:03;;;;;;;57.45;32.92;;;2.00;99.90;;;;;;5062909;28;20056;-80
2021/12/06 07:52:30;;;;;;;53.58;28.35;;;2.00;99.90;;;;;;5061725;28;20049;-81
2021/12/06 07:54:59;;;;;;;75.65;33.72;;;1.90;99.90;;;;;;5055787;28;20052;-81
2021/12/06 07:57:25;;;;;;;59.80;31.73;;;1.90;99.90;;;;;;5056447;28;20055;-81
2021/12/06 07:59:52;;;;;;;61.17;31.50;;;1.90;99.90;;;;;;5065658;28;20052;-81
2021/12/06 08:02:18;;;;;;;66.82;31.70;;;1.90;99.90;;;;;;5062350;28;20044;-80
2021/12/06 08:04:48;;;;;;;67.28;32.47;;;1.90;99.90;;;;;;5054831;28;20045;-81
2021/12/06 08:07:14;;;;;;;57.00;33.00;;;2.00;99.90;;;;;;5061344;28;20477;-81
2021/12/06 08:09:41;;;;;;;60.13;31.85;;;2.00;99.90;;;;;;5063502;28;20055;-81
2021/12/06 08:12:07;;;;;;;63.85;34.63;;;2.00;99.90;;;;;;5057412;28;20488;-80
2021/12/06 08:14:34;;;;;;;64.30;33.95;;;1.90;99.90;;;;;;5056001;28;20041;-81
2021/12/06 08:17:00;;;;;;;62.88;34.95;;;2.00;99.90;;;;;;5056777;28;20083;-81
2021/12/06 08:19:27;;;;;;;68.55;34.72;;;2.00;99.90;;;;;;5061870;28;20083;-80
2021/12/06 08:21:54;;;;;;;63.22;32.25;;;2.00;99.90;;;;;;5056263;28;20052;-81
2021/12/06 08:24:20;;;;;;;66.10;33.45;;;2.00;99.90;;;;;;5061393;28;20056;-81
2021/12/06 08:26:47;;;;;;;61.85;32.10;;;2.00;99.90;;;;;;5064392;28;20076;-81
2021/12/06 08:29:15;;;;;;;63.38;33.97;;;2.00;99.90;;;;;;5058671;28;20106;-80
2021/12/06 08:31:44;;;;;;;62.95;31.90;;;2.00;99.90;;;;;;5059753;28;20044;-81
2021/12/06 08:34:10;;;;;;;58.15;32.20;;;2.00;99.90;;;;;;5062321;28;20480;-81
2021/12/06 08:36:37;;;;;;;65.75;35.80;;;2.10;99.90;;;;;;5063558;28;20501;-81
2021/12/06 08:39:04;;;;;;;68.57;33.92;;;2.10;99.90;;;;;;5060614;28;20052;-81
2021/12/06 08:41:30;;;;;;;67.45;37.35;;;2.10;99.90;;;;;;5059567;28;20049;-81
2021/12/06 08:43:57;;;;;;;56.65;30.25;;;2.10;99.90;;;;;;5059515;28;20048;-81
2021/12/06 08:46:23;;;;;;;56.05;29.27;;;2.10;99.90;;;;;;5053232;28;20056;-81
2021/12/06 08:48:50;;;;;;;52.75;29.05;;;2.10;99.90;;;;;;5057892;28;20722;-81
2021/12/06 08:51:17;;;;;;;52.60;28.45;;;2.10;99.90;;;;;;5052639;28;20068;-80
2021/12/06 08:53:43;;;;;;;53.08;29.23;;;2.10;99.90;;;;;;5055953;28;20044;-81
2021/12/06 08:56:10;;;;;;;56.80;29.05;;;2.00;99.90;;;;;;5062906;28;20059;-81
2021/12/06 08:58:36;;;;;;;58.03;29.60;;;2.00;99.90;;;;;;5060130;28;20040;-81
2021/12/06 09:01:03;;;;;;;55.80;28.30;;;2.10;99.90;;;;;;5058906;28;20049;-81
2021/12/06 09:03:30;;;;;;;51.38;27.27;;;2.10;99.90;;;;;;5061318;28;20052;-81
2021/12/06 09:05:57;;;;;;;53.70;28.42;;;2.10;99.90;;;;;;5061744;28;20047;-81
2021/12/06 09:08:24;;;;;;;51.17;28.88;;;2.10;99.90;;;;;;5058023;28;20041;-81
2021/12/06 09:10:52;;;;;;;66.60;29.75;;;2.10;99.90;;;;;;5062275;28;20375;-81
2021/12/06 09:13:18;;;;;;;49.20;26.67;;;2.20;99.90;;;;;;5064188;28;20044;-81
2021/12/06 09:15:45;;;;;;;50.58;27.02;;;2.10;99.90;;;;;;5059163;28;20044;-81
2021/12/06 09:18:11;;;;;;;50.75;25.85;;;2.20;99.90;;;;;;5055944;28;20051;-81
2021/12/06 09:20:38;;;;;;;55.55;29.80;;;2.20;99.90;;;;;;5061464;28;20045;-81
2021/12/06 09:23:04;;;;;;;55.75;29.45;;;2.20;99.90;;;;;;5060495;28;20067;-79
2021/12/06 09:25:31;;;;;;;58.33;30.48;;;2.20;99.90;;;;;;5046530;28;20061;-82
2021/12/06 09:27:57;;;;;;;54.80;27.83;;;2.20;99.90;;;;;;5054919;28;20061;-81
2021/12/06 09:30:26;;;;;;;51.85;26.83;;;2.20;99.90;;;;;;5054839;28;20048;-81
2021/12/06 09:32:53;;;;;;;53.60;28.63;;;2.20;99.90;;;;;;5057795;28;20051;-80
2021/12/06 09:35:24;;;;;;;55.15;28.50;;;2.20;99.90;;;;;;5049079;28;20059;-81
2021/12/06 09:37:50;;;;;;;50.58;26.75;;;2.20;99.90;;;;;;5054356;28;20048;-81
2021/12/06 09:40:17;;;;;;;54.05;25.90;;;2.20;99.90;;;;;;5048802;28;20067;-80
2021/12/06 09:42:43;;;;;;;53.53;30.20;;;2.20;99.90;;;;;;5050130;28;20504;-81
2021/12/06 09:45:10;;;;;;;52.58;27.92;;;2.20;99.90;;;;;;5052460;28;20049;-81
2021/12/06 09:47:36;;;;;;;53.40;29.27;;;2.30;99.90;;;;;;5052273;28;20071;-81
2021/12/06 09:50:03;;;;;;;44.97;26.58;;;2.20;99.90;;;;;;5054410;28;20047;-80
2021/12/06 09:52:29;;;;;;;44.50;24.98;;;2.30;99.90;;;;;;5064236;28;20056;-81
2021/12/06 09:54:56;;;;;;;49.92;27.08;;;2.30;99.90;;;;;;5057511;28;20052;-80
2021/12/06 09:57:23;;;;;;;45.65;23.20;;;2.30;99.90;;;;;;5055601;28;20053;-81
2021/12/06 09:59:50;;;;;;;45.47;24.98;;;2.30;99.90;;;;;;5047194;28;20488;-80
2021/12/06 10:02:16;;;;;;;52.72;26.63;;;2.30;99.90;;;;;;5063153;28;20059;-80
2021/12/06 10:04:45;;;;;;;42.45;25.25;;;2.40;99.90;;;;;;5060372;28;20048;-80
2021/12/06 10:07:11;;;;;;;49.08;25.15;;;2.40;99.90;;;;;;5055087;28;20136;-80
2021/12/06 10:09:38;;;;;;;45.97;28.17;;;2.40;99.90;;;;;;5054016;28;20064;-80
2021/12/06 10:12:04;;;;;;;53.55;26.52;;;2.30;99.90;;;;;;5058618;28;20288;-80
2021/12/06 10:14:31;;;;;;;50.42;25.20;;;2.40;99.90;;;;;;5057948;28;20046;-81
2021/12/06 10:16:57;;;;;;;49.95;25.55;;;2.40;99.90;;;;;;5061720;28;20046;-80
2021/12/06 10:19:25;;;;;;;51.35;25.90;;;2.40;99.90;;;;;;5058234;28;20064;-80
2021/12/06 10:21:52;;;;;;;43.90;25.80;;;2.40;99.90;;;;;;5056839;28;20598;-81
2021/12/06 10:24:18;;;;;;;44.65;24.80;;;2.30;99.90;;;;;;5065124;28;20045;-81
2021/12/06 10:26:45;;;;;;;39.63;24.30;;;2.40;99.90;;;;;;5064182;28;20064;-80
2021/12/06 10:29:11;;;;;;;46.50;23.80;;;2.30;99.90;;;;;;5066812;28;20395;-80
2021/12/06 10:31:38;;;;;;;40.40;23.80;;;2.30;99.90;;;;;;5063167;28;20052;-80
2021/12/06 10:34:05;;;;;;;38.58;21.88;;;2.30;99.90;;;;;;5054342;28;20416;-80
2021/12/06 10:36:31;;;;;;;38.15;23.65;;;2.30;99.90;;;;;;5050909;28;20037;-80
2021/12/06 10:38:58;;;;;;;44.88;24.98;;;2.30;99.90;;;;;;5061139;28;20843;-80
2021/12/06 10:41:25;;;;;;;44.88;25.13;;;2.40;99.90;;;;;;5056283;28;20052;-81
2021/12/06 10:43:52;;;;;;;51.25;25.73;;;2.40;99.90;;;;;;5058113;28;20047;-81
2021/12/06 10:46:18;;;;;;;42.88;25.75;;;2.40;99.90;;;;;;5056594;28;20044;-81
2021/12/06 10:48:45;;;;;;;50.42;25.85;;;2.40;99.90;;;;;;5058491;28;20052;-81
2021/12/06 10:51:11;;;;;;;45.88;25.10;;;2.40;99.90;;;;;;5059442;28;20048;-81
2021/12/06 10:53:40;;;;;;;44.45;24.15;;;2.40;99.90;;;;;;5060468;28;20481;-81
2021/12/06 10:56:14;;;;;;;44.05;24.80;;;2.40;99.90;;;;;;5053461;28;20040;-81
2021/12/06 10:58:40;;;;;;;48.65;25.35;;;2.40;99.90;;;;;;5056080;28;20056;-81
2021/12/06 11:01:07;;;;;;;47.65;24.60;;;2.40;99.90;;;;;;5056688;28;20048;-81
2021/12/06 11:03:33;;;;;;;44.97;23.27;;;2.40;99.90;;;;;;5063216;28;20053;-81
2021/12/06 11:06:02;;;;;;;47.33;25.45;;;2.40;99.90;;;;;;5049211;28;20377;-81
2021/12/06 11:08:28;;;;;;;40.97;23.25;;;2.40;99.90;;;;;;5056677;28;20759;-81
2021/12/06 11:10:55;;;;;;;48.95;25.42;;;2.40;99.90;;;;;;5063485;28;20403;-81
2021/12/06 11:13:23;;;;;;;42.85;24.38;;;2.30;99.90;;;;;;5061472;28;20438;-81
2021/12/06 11:15:50;;;;;;;46.20;25.48;;;2.30;99.90;;;;;;5062324;28;20061;-81
2021/12/06 11:18:16;;;;;;;42.58;24.08;;;2.30;99.90;;;;;;5060418;28;20049;-81
2021/12/06 11:20:43;;;;;;;42.08;21.77;;;2.30;99.90;;;;;;5054747;28;20045;-81
2021/12/06 11:23:09;;;;;;;40.13;21.58;;;2.30;99.90;;;;;;5048188;28;20053;-81
2021/12/06 11:25:36;;;;;;;43.50;21.85;;;2.20;99.90;;;;;;5052350;28;20056;-81
2021/12/06 11:28:02;;;;;;;39.13;22.48;;;2.30;99.90;;;;;;5050855;28;20049;-81
2021/12/06 11:30:30;;;;;;;36.42;23.33;;;2.30;99.90;;;;;;5065085;28;20058;-81
2021/12/06 11:32:58;;;;;;;33.38;22.92;;;2.20;99.90;;;;;;5053841;28;20055;-81
2021/12/06 11:35:25;;;;;;;40.53;22.02;;;2.20;99.90;;;;;;5053875;28;20427;-80
2021/12/06 11:37:52;;;;;;;43.38;23.90;;;2.20;99.90;;;;;;5057995;28;20052;-80
2021/12/06 11:40:18;;;;;;;48.22;23.23;;;2.20;99.90;;;;;;5049858;28;20752;-80
2021/12/06 11:42:45;;;;;;;38.28;21.98;;;2.20;99.90;;;;;;5055020;28;20056;-80
2021/12/06 11:45:11;;;;;;;41.33;24.17;;;2.20;99.90;;;;;;5049010;28;20052;-80
2021/12/06 11:47:38;;;;;;;39.47;21.40;;;2.20;99.90;;;;;;5052515;28;20041;-80
2021/12/06 11:50:04;;;;;;;42.33;24.35;;;2.20;99.90;;;;;;5053017;28;20045;-80
2021/12/06 11:52:31;;;;;;;35.67;22.52;;;2.20;99.90;;;;;;5057147;28;20053;-80
2021/12/06 11:54:58;;;;;;;41.97;23.08;;;2.20;99.90;;;;;;5054178;28;20087;-80
2021/12/06 11:57:24;;;;;;;37.95;23.15;;;2.20;99.90;;;;;;5053506;28;20064;-80
2021/12/06 11:59:51;;;;;;;39.67;23.23;;;2.30;99.90;;;;;;5050415;28;20045;-80
2021/12/06 12:02:17;;;;;;;48.85;24.13;;;2.30;99.90;;;;;;5058184;28;20049;-80
2021/12/06 12:04:44;;;;;;;38.60;21.77;;;2.30;99.90;;;;;;5058444;28;20123;-80
2021/12/06 12:07:10;;;;;;;42.50;23.33;;;2.30;99.90;;;;;;5056183;28;20060;-80
2021/12/06 12:09:37;;;;;;;37.25;19.65;;;2.40;99.90;;;;;;5054666;28;20056;-80
2021/12/06 12:12:03;;;;;;;43.95;21.80;;;2.40;99.90;;;;;;5053940;28;20056;-80
2021/12/06 12:14:30;;;;;;;40.13;23.33;;;2.40;99.90;;;;;;5056499;28;20060;-80
2021/12/06 12:16:57;;;;;;;46.05;23.33;;;2.50;99.90;;;;;;5056831;28;20048;-80
2021/12/06 12:19:23;;;;;;;38.53;20.83;;;2.50;99.90;;;;;;5059563;28;20043;-80
2021/12/06 12:21:50;;;;;;;38.80;19.83;;;2.50;99.90;;;;;;5058333;28;20052;-81
2021/12/06 12:24:16;;;;;;;40.00;20.08;;;2.40;99.90;;;;;;5052799;28;20049;-80
2021/12/06 12:26:53;;;;;;;33.45;20.00;;;2.40;99.90;;;;;;5056603;28;20057;-80
2021/12/06 12:29:24;;;;;;;42.65;23.50;;;2.50;99.90;;;;;;5056942;28;20059;-80
2021/12/06 12:31:51;;;;;;;56.28;22.30;;;2.50;99.90;;;;;;5051950;28;20068;-80
2021/12/06 12:34:18;;;;;;;40.45;21.50;;;2.50;99.90;;;;;;5056400;28;20061;-81
2021/12/06 12:36:44;;;;;;;36.63;21.10;;;2.60;99.90;;;;;;5063786;28;20071;-80
2021/12/06 12:39:11;;;;;;;37.83;20.52;;;2.60;99.90;;;;;;5059055;28;20048;-81